Temp: 4.1°C   Baro: 1036.6mb
  Wind: 0.0mph   Dir: W (273°)
  Rain: 0.0mm (0.0mm/hr)
  Solar: 0W/m2  Hum: 84%

Historic data

Bath Spa Weather Station Historical Data
Daily Summary for December 9, 2019 Units:  Both    English   Metric
Daily Weekly Monthly Yearly Custom
  High: Low: Average:
Temperature: 50.5 °F /  10.3 °C 34.5 °F /  1.4 °C 45.1 °F /  7.3 °C
Dew Point: 43.8 °F /  6.6 °C 32.3 °F /  0.2 °C 39 °F /  3.9 °C
Humidity: 91.8% 67.8% 79%
Wind Speed: 19.4mph /  31.2km/h - 5.9mph /  9.5km/h
Wind Gust: 32mph /  51.5km/h - -
Wind- - WNW
Pressure: 30.28 in /  1025.3 hPa 29.32 in /  992.8 hPa -
Precipitation: 0.02 in /  0.51 mm    
Historical Graphs
 
 
Tabular Data for December 9, 2019
Time Temperature Dew Point Pressure Wind Wind Speed Wind Gust Humidity Rainfall Rate (Hourly) solar
00:09 46.6 °F /  8.1 °C 42.3 °F /  5.7 °C 29.32in /  992.8hPa West 10.3mph /  16.6km/h 20mph /  32.2km/h 85% 0.00in /  0mm 0 W/m2
00:13 46.4 °F /  8 °C 42 °F /  5.6 °C 29.33in /  993.1hPa WNW 14.8mph /  23.8km/h 21mph /  33.8km/h 84.5% 0.00in /  0mm 0 W/m2
00:19 46.4 °F /  8 °C 41.9 °F /  5.5 °C 29.33in /  993.1hPa West 10.2mph /  16.4km/h 20mph /  32.2km/h 84% 0.00in /  0mm 0 W/m2
00:24 46.3 °F /  7.9 °C 41.8 °F /  5.4 °C 29.33in /  993.1hPa West 13.2mph /  21.2km/h 23mph /  37km/h 84% 0.00in /  0mm 0 W/m2
00:29 46.2 °F /  7.9 °C 41.7 °F /  5.4 °C 29.33in /  993.1hPa West 12.2mph /  19.6km/h 22mph /  35.4km/h 84% 0.00in /  0mm 0 W/m2
00:34 46.2 °F /  7.9 °C 41.7 °F /  5.4 °C 29.34in /  993.5hPa West 7.4mph /  11.9km/h 23mph /  37km/h 84% 0.00in /  0mm 0 W/m2
00:39 46.2 °F /  7.9 °C 41.7 °F /  5.4 °C 29.34in /  993.5hPa West 8.8mph /  14.2km/h 21mph /  33.8km/h 84% 0.00in /  0mm 0 W/m2
00:44 46.3 °F /  7.9 °C 41.8 °F /  5.4 °C 29.34in /  993.5hPa West 10.2mph /  16.4km/h 19mph /  30.6km/h 84% 0.00in /  0mm 0 W/m2
00:49 46.4 °F /  8 °C 41.7 °F /  5.4 °C 29.33in /  993.1hPa WNW 11.8mph /  19km/h 20mph /  32.2km/h 83.4% 0.00in /  0mm 0 W/m2
00:54 46.6 °F /  8.1 °C 41.7 °F /  5.4 °C 29.33in /  993.1hPa West 9.6mph /  15.4km/h 19mph /  30.6km/h 83% 0.00in /  0mm 0 W/m2
00:59 46.8 °F /  8.2 °C 41.9 °F /  5.5 °C 29.34in /  993.5hPa West 9.4mph /  15.1km/h 19mph /  30.6km/h 83% 0.00in /  0mm 0 W/m2
01:04 46.9 °F /  8.3 °C 41.9 °F /  5.5 °C 29.34in /  993.5hPa West 8.8mph /  14.2km/h 19mph /  30.6km/h 82.6% 0.00in /  0mm 0 W/m2
01:09 47.1 °F /  8.4 °C 41.9 °F /  5.5 °C 29.34in /  993.5hPa West 9.4mph /  15.1km/h 17mph /  27.4km/h 82% 0.00in /  0mm 0 W/m2
01:14 47.2 °F /  8.4 °C 42 °F /  5.6 °C 29.34in /  993.5hPa WNW 12.1mph /  19.5km/h 22mph /  35.4km/h 82% 0.00in /  0mm 0 W/m2
01:19 47.4 °F /  8.6 °C 41.8 °F /  5.4 °C 29.34in /  993.5hPa West 6.8mph /  10.9km/h 21mph /  33.8km/h 81% 0.00in /  0mm 0 W/m2
01:24 47.5 °F /  8.6 °C 41.9 °F /  5.5 °C 29.34in /  993.5hPa WNW 13.4mph /  21.6km/h 22mph /  35.4km/h 81% 0.00in /  0mm 0 W/m2
01:29 47.5 °F /  8.6 °C 41.9 °F /  5.5 °C 29.34in /  993.5hPa West 9.8mph /  15.8km/h 19mph /  30.6km/h 81% 0.00in /  0mm 0 W/m2
01:34 47.5 °F /  8.6 °C 41.9 °F /  5.5 °C 29.34in /  993.5hPa West 13mph /  20.9km/h 24mph /  38.6km/h 81% 0.00in /  0mm 0 W/m2
01:39 47.5 °F /  8.6 °C 41.9 °F /  5.5 °C 29.34in /  993.5hPa West 12.2mph /  19.6km/h 22mph /  35.4km/h 81% 0.00in /  0mm 0 W/m2
01:44 47.5 °F /  8.6 °C 41.9 °F /  5.5 °C 29.34in /  993.5hPa West 14.4mph /  23.2km/h 25mph /  40.2km/h 81% 0.00in /  0mm 0 W/m2
01:49 47.5 °F /  8.6 °C 42 °F /  5.6 °C 29.34in /  993.5hPa West 10.5mph /  16.9km/h 18mph /  29km/h 81.3% 0.00in /  0mm 0 W/m2
01:54 47.5 °F /  8.6 °C 42.3 °F /  5.7 °C 29.33in /  993.1hPa West 15.2mph /  24.5km/h 21mph /  33.8km/h 82% 0.00in /  0mm 0 W/m2
01:59 47.5 °F /  8.6 °C 42.3 °F /  5.7 °C 29.34in /  993.5hPa West 19.4mph /  31.2km/h 26mph /  41.8km/h 82% 0.00in /  0mm 0 W/m2
02:04 47.5 °F /  8.6 °C 42.3 °F /  5.7 °C 29.34in /  993.5hPa West 11mph /  17.7km/h 21mph /  33.8km/h 82% 0.00in /  0mm 0 W/m2
02:09 47.5 °F /  8.6 °C 42.6 °F /  5.9 °C 29.34in /  993.5hPa West 12.8mph /  20.6km/h 22mph /  35.4km/h 83% 0.00in /  0mm 0 W/m2
02:14 47.7 °F /  8.7 °C 42.4 °F /  5.8 °C 29.34in /  993.5hPa West 11.7mph /  18.8km/h 22mph /  35.4km/h 82% 0.00in /  0mm 0 W/m2
02:19 47.7 °F /  8.7 °C 42.7 °F /  5.9 °C 29.34in /  993.5hPa WNW 16.4mph /  26.4km/h 26mph /  41.8km/h 82.8% 0.00in /  0mm 0 W/m2
02:24 47.7 °F /  8.7 °C 42.8 °F /  6 °C 29.34in /  993.5hPa WNW 12.3mph /  19.8km/h 20mph /  32.2km/h 83% 0.00in /  0mm 0 W/m2
02:29 47.7 °F /  8.7 °C 42.8 °F /  6 °C 29.34in /  993.5hPa West 11.6mph /  18.7km/h 26mph /  41.8km/h 83% 0.00in /  0mm 0 W/m2
02:34 47.7 °F /  8.7 °C 42.8 °F /  6 °C 29.34in /  993.5hPa West 11.9mph /  19.2km/h 26mph /  41.8km/h 83% 0.00in /  0mm 0 W/m2
02:39 47.7 °F /  8.7 °C 42.8 °F /  6 °C 29.35in /  993.8hPa West 14.8mph /  23.8km/h 23mph /  37km/h 83% 0.00in /  0mm 0 W/m2
02:44 47.7 °F /  8.7 °C 42.8 °F /  6 °C 29.35in /  993.8hPa West 13mph /  20.9km/h 24mph /  38.6km/h 83% 0.00in /  0mm 0 W/m2
02:49 47.6 °F /  8.7 °C 42.7 °F /  5.9 °C 29.35in /  993.8hPa West 12.1mph /  19.5km/h 24mph /  38.6km/h 83% 0.00in /  0mm 0 W/m2
02:54 47.5 °F /  8.6 °C 42.6 °F /  5.9 °C 29.35in /  993.8hPa West 9.8mph /  15.8km/h 24mph /  38.6km/h 83% 0.00in /  0mm 0 W/m2
02:59 47.5 °F /  8.6 °C 42.8 °F /  6 °C 29.35in /  993.8hPa WNW 10.4mph /  16.7km/h 24mph /  38.6km/h 84% 0.00in /  0mm 0 W/m2
03:04 47.5 °F /  8.6 °C 42.8 °F /  6 °C 29.35in /  993.8hPa West 11.4mph /  18.3km/h 24mph /  38.6km/h 84% 0.00in /  0mm 0 W/m2
03:09 47.5 °F /  8.6 °C 42.8 °F /  6 °C 29.35in /  993.8hPa West 11.2mph /  18km/h 17mph /  27.4km/h 84% 0.00in /  0mm 0 W/m2
03:14 47.5 °F /  8.6 °C 42.8 °F /  6 °C 29.35in /  993.8hPa West 10mph /  16.1km/h 19mph /  30.6km/h 84% 0.00in /  0mm 0 W/m2
03:19 47.6 °F /  8.7 °C 42.9 °F /  6.1 °C 29.36in /  994.1hPa West 8.4mph /  13.5km/h 20mph /  32.2km/h 84% 0.00in /  0mm 0 W/m2
03:24 47.7 °F /  8.7 °C 43 °F /  6.1 °C 29.36in /  994.1hPa West 10mph /  16.1km/h 19mph /  30.6km/h 84% 0.00in /  0mm 0 W/m2
03:29 47.7 °F /  8.7 °C 43 °F /  6.1 °C 29.36in /  994.1hPa West 7.2mph /  11.6km/h 16mph /  25.7km/h 84% 0.00in /  0mm 0 W/m2
03:34 47.5 °F /  8.6 °C 43 °F /  6.1 °C 29.37in /  994.5hPa WNW 7.6mph /  12.2km/h 18mph /  29km/h 84.4% 0.00in /  0mm 0 W/m2
03:39 47.5 °F /  8.6 °C 43.2 °F /  6.2 °C 29.37in /  994.5hPa West 7.8mph /  12.6km/h 18mph /  29km/h 85% 0.00in /  0mm 0 W/m2
03:44 47.5 °F /  8.6 °C 43.2 °F /  6.2 °C 29.38in /  994.8hPa WNW 9mph /  14.5km/h 21mph /  33.8km/h 85% 0.00in /  0mm 0 W/m2
03:49 47.9 °F /  8.8 °C 43.5 °F /  6.4 °C 29.38in /  994.8hPa WNW 10mph /  16.1km/h 24mph /  38.6km/h 85% 0.00in /  0mm 0 W/m2
03:54 48.2 °F /  9 °C 43.6 °F /  6.4 °C 29.39in /  995.1hPa WNW 7.4mph /  11.9km/h 21mph /  33.8km/h 84.4% 0.00in /  0mm 0 W/m2
03:59 48.4 °F /  9.1 °C 43.7 °F /  6.5 °C 29.40in /  995.5hPa West 10.2mph /  16.4km/h 17mph /  27.4km/h 84% 0.00in /  0mm 0 W/m2
04:04 48.6 °F /  9.2 °C 43.8 °F /  6.6 °C 29.40in /  995.5hPa WNW 10.5mph /  16.9km/h 19mph /  30.6km/h 83.3% 0.00in /  0mm 0 W/m2
04:09 48.7 °F /  9.3 °C 43.7 °F /  6.5 °C 29.41in /  995.8hPa WNW 10.2mph /  16.4km/h 21mph /  33.8km/h 82.6% 0.00in /  0mm 0 W/m2
04:14 49.1 °F /  9.5 °C 43.7 °F /  6.5 °C 29.42in /  996.2hPa WNW 11.6mph /  18.7km/h 23mph /  37km/h 81.4% 0.00in /  0mm 0 W/m2
04:19 49.4 °F /  9.7 °C 43.6 °F /  6.4 °C 29.44in /  996.8hPa WNW 10.8mph /  17.4km/h 20mph /  32.2km/h 80.4% 0.00in /  0mm 0 W/m2
04:24 49.8 °F /  9.9 °C 43.3 °F /  6.3 °C 29.44in /  996.8hPa WNW 14.2mph /  22.9km/h 26mph /  41.8km/h 78.6% 0.00in /  0mm 0 W/m2
04:29 49.8 °F /  9.9 °C 43.1 °F /  6.2 °C 29.45in /  997.2hPa WNW 11.2mph /  18km/h 29mph /  46.7km/h 77.6% 0.00in /  0mm 0 W/m2
04:34 49.9 °F /  9.9 °C 43.1 °F /  6.2 °C 29.46in /  997.5hPa WNW 9.4mph /  15.1km/h 22mph /  35.4km/h 77% 0.00in /  0mm 0 W/m2
04:39 49.8 °F /  9.9 °C 43 °F /  6.1 °C 29.47in /  997.9hPa WNW 12.2mph /  19.6km/h 21mph /  33.8km/h 77% 0.00in /  0mm 0 W/m2
04:44 49.7 °F /  9.8 °C 42.9 °F /  6.1 °C 29.48in /  998.2hPa NW 14.2mph /  22.9km/h 21mph /  33.8km/h 77% 0.00in /  0mm 0 W/m2
04:49 49.6 °F /  9.8 °C 42.4 °F /  5.8 °C 29.49in /  998.5hPa WNW 13.8mph /  22.2km/h 26mph /  41.8km/h 76% 0.00in /  0mm 0 W/m2
04:54 49.6 °F /  9.8 °C 42.4 °F /  5.8 °C 29.49in /  998.5hPa WNW 14.6mph /  23.5km/h 25mph /  40.2km/h 76% 0.00in /  0mm 0 W/m2
04:59 49.6 °F /  9.8 °C 42.1 °F /  5.6 °C 29.50in /  998.9hPa WNW 11.5mph /  18.5km/h 26mph /  41.8km/h 75% 0.00in /  0mm 0 W/m2
05:04 49.5 °F /  9.7 °C 42.3 °F /  5.7 °C 29.51in /  999.2hPa WNW 8mph /  12.9km/h 18mph /  29km/h 75.8% 0.00in /  0mm 0 W/m2
05:09 49.3 °F /  9.6 °C 41.8 °F /  5.4 °C 29.51in /  999.2hPa WNW 7.5mph /  12.1km/h 21mph /  33.8km/h 75.2% 0.00in /  0mm 0 W/m2
05:14 49.1 °F /  9.5 °C 41.5 °F /  5.3 °C 29.52in /  999.5hPa WNW 7.4mph /  11.9km/h 20mph /  32.2km/h 75% 0.00in /  0mm 0 W/m2
05:19 48.9 °F /  9.4 °C 41 °F /  5 °C 29.53in /  999.9hPa NW 6.6mph /  10.6km/h 16mph /  25.7km/h 74% 0.00in /  0mm 0 W/m2
05:24 48.7 °F /  9.3 °C 40.8 °F /  4.9 °C 29.53in /  999.9hPa WNW 9.2mph /  14.8km/h 18mph /  29km/h 74% 0.00in /  0mm 0 W/m2
05:29 48.6 °F /  9.2 °C 40.6 °F /  4.8 °C 29.54in /  1000.2hPa WNW 7.8mph /  12.6km/h 14mph /  22.5km/h 74% 0.00in /  0mm 0 W/m2
05:34 48.6 °F /  9.2 °C 40.6 °F /  4.8 °C 29.54in /  1000.2hPa WNW 7.7mph /  12.4km/h 16mph /  25.7km/h 74% 0.00in /  0mm 0 W/m2
05:39 48.5 °F /  9.2 °C 40.6 °F /  4.8 °C 29.55in /  1000.6hPa WNW 8.4mph /  13.5km/h 17mph /  27.4km/h 74% 0.00in /  0mm 0 W/m2
05:44 48.6 °F /  9.2 °C 40.6 °F /  4.8 °C 29.56in /  1000.9hPa WNW 6.6mph /  10.6km/h 17mph /  27.4km/h 74% 0.00in /  0mm 0 W/m2
05:49 48.6 °F /  9.2 °C 40.8 °F /  4.9 °C 29.57in /  1001.2hPa WNW 10.9mph /  17.5km/h 18mph /  29km/h 74.4% 0.00in /  0mm 0 W/m2
05:54 48.4 °F /  9.1 °C 40.9 °F /  4.9 °C 29.57in /  1001.2hPa West 7.4mph /  11.9km/h 14mph /  22.5km/h 75.2% 0.00in /  0mm 0 W/m2
05:59 48.2 °F /  9 °C 41 °F /  5 °C 29.58in /  1001.6hPa WNW 9.3mph /  15km/h 16mph /  25.7km/h 76% 0.00in /  0mm 0 W/m2
06:04 48 °F /  8.9 °C 41.2 °F /  5.1 °C 29.59in /  1001.9hPa WNW 9.2mph /  14.8km/h 17mph /  27.4km/h 77% 0.00in /  0mm 0 W/m2
06:09 47.8 °F /  8.8 °C 41.1 °F /  5.1 °C 29.59in /  1001.9hPa WNW 7mph /  11.3km/h 17mph /  27.4km/h 77% 0.00in /  0mm 0 W/m2
06:14 47.8 °F /  8.8 °C 41 °F /  5 °C 29.59in /  1001.9hPa WNW 5.2mph /  8.4km/h 15mph /  24.1km/h 77% 0.00in /  0mm 0 W/m2
06:19 47.8 °F /  8.8 °C 41 °F /  5 °C 29.60in /  1002.3hPa WNW 6.4mph /  10.3km/h 18mph /  29km/h 77% 0.00in /  0mm 0 W/m2
06:24 47.8 °F /  8.8 °C 41 °F /  5 °C 29.61in /  1002.6hPa WNW 7mph /  11.3km/h 19mph /  30.6km/h 77% 0.00in /  0mm 0 W/m2
06:29 47.8 °F /  8.8 °C 41 °F /  5 °C 29.62in /  1002.9hPa WNW 7.8mph /  12.6km/h 19mph /  30.6km/h 77% 0.00in /  0mm 0 W/m2
06:34 47.7 °F /  8.7 °C 40.8 °F /  4.9 °C 29.63in /  1003.3hPa WNW 8.6mph /  13.8km/h 19mph /  30.6km/h 77% 0.00in /  0mm 0 W/m2
06:39 47.7 °F /  8.7 °C 40.8 °F /  4.9 °C 29.64in /  1003.6hPa West 6.6mph /  10.6km/h 19mph /  30.6km/h 77% 0.00in /  0mm 0 W/m2
06:44 47.8 °F /  8.8 °C 41 °F /  5 °C 29.64in /  1003.6hPa WNW 8.2mph /  13.2km/h 19mph /  30.6km/h 77% 0.00in /  0mm 0 W/m2
06:49 47.8 °F /  8.8 °C 41 °F /  5 °C 29.64in /  1003.6hPa WNW 7mph /  11.3km/h 16mph /  25.7km/h 77% 0.00in /  0mm 0 W/m2
06:54 47.8 °F /  8.8 °C 40.8 °F /  4.9 °C 29.65in /  1003.9hPa WNW 12.6mph /  20.3km/h 25mph /  40.2km/h 76.4% 0.00in /  0mm 0 W/m2
06:59 47.8 °F /  8.8 °C 40.6 °F /  4.8 °C 29.66in /  1004.3hPa WNW 7.2mph /  11.6km/h 22mph /  35.4km/h 76% 0.00in /  0mm 0 W/m2
07:04 48 °F /  8.9 °C 40.8 °F /  4.9 °C 29.67in /  1004.6hPa NW 10.8mph /  17.4km/h 20mph /  32.2km/h 76% 0.01in /  0.25mm 0 W/m2
07:09 48 °F /  8.9 °C 40.8 °F /  4.9 °C 29.67in /  1004.6hPa WNW 12.2mph /  19.6km/h 22mph /  35.4km/h 76% 0.01in /  0.25mm 0 W/m2
07:14 47.8 °F /  8.8 °C 40.6 °F /  4.8 °C 29.68in /  1005hPa WNW 7.8mph /  12.6km/h 15mph /  24.1km/h 76% 0.01in /  0.25mm 0 W/m2
07:19 47.7 °F /  8.7 °C 40.6 °F /  4.8 °C 29.69in /  1005.3hPa WNW 7.3mph /  11.7km/h 15mph /  24.1km/h 76.4% 0.01in /  0.25mm 0 W/m2
07:24 47.7 °F /  8.7 °C 40.8 °F /  4.9 °C 29.70in /  1005.6hPa WNW 8.2mph /  13.2km/h 15mph /  24.1km/h 77% 0.01in /  0.25mm 0 W/m2
07:29 47.6 °F /  8.7 °C 40.7 °F /  4.8 °C 29.71in /  1006hPa WNW 8.4mph /  13.5km/h 15mph /  24.1km/h 77% 0.01in /  0.25mm 0 W/m2
07:34 47.6 °F /  8.7 °C 40.7 °F /  4.8 °C 29.72in /  1006.3hPa WNW 6.4mph /  10.3km/h 13mph /  20.9km/h 77% 0.01in /  0.25mm 0 W/m2
07:39 47.5 °F /  8.6 °C 40.6 °F /  4.8 °C 29.72in /  1006.3hPa WNW 7mph /  11.3km/h 16mph /  25.7km/h 77% 0.01in /  0.25mm 0 W/m2
07:44 47.5 °F /  8.6 °C 40.6 °F /  4.8 °C 29.73in /  1006.7hPa WNW 7.6mph /  12.2km/h 14mph /  22.5km/h 77% 0.01in /  0.25mm 0 W/m2
07:49 47.5 °F /  8.6 °C 40.6 °F /  4.8 °C 29.73in /  1006.7hPa WNW 5.7mph /  9.2km/h 13mph /  20.9km/h 77% 0.01in /  0.25mm 0 W/m2
07:54 47.5 °F /  8.6 °C 40.6 °F /  4.8 °C 29.74in /  1007hPa WNW 7.8mph /  12.6km/h 13mph /  20.9km/h 77% 0.01in /  0.25mm 0 W/m2
07:59 47.5 °F /  8.6 °C 40.6 °F /  4.8 °C 29.75in /  1007.3hPa WNW 7.4mph /  11.9km/h 16mph /  25.7km/h 77% 0.01in /  0.25mm 0 W/m2
08:04 47.7 °F /  8.7 °C 40.7 °F /  4.8 °C 29.76in /  1007.7hPa WNW 9mph /  14.5km/h 15mph /  24.1km/h 76.6% 0.01in /  0.25mm 5 W/m2
08:09 47.8 °F /  8.8 °C 40.6 °F /  4.8 °C 29.77in /  1008hPa WNW 10.2mph /  16.4km/h 22mph /  35.4km/h 76% 0.00in /  0mm 5 W/m2
08:13 47.7 °F /  8.7 °C 40.5 °F /  4.7 °C 29.78in /  1008.4hPa WNW 5.2mph /  8.4km/h 19mph /  30.6km/h 76% 0.00in /  0mm 7 W/m2
08:19 47.6 °F /  8.7 °C 40.3 °F /  4.6 °C 29.78in /  1008.4hPa WNW 7.6mph /  12.2km/h 22mph /  35.4km/h 75.8% 0.00in /  0mm 11 W/m2
08:24 47.5 °F /  8.6 °C 40.3 °F /  4.6 °C 29.79in /  1008.7hPa WNW 7mph /  11.3km/h 12mph /  19.3km/h 76% 0.00in /  0mm 19 W/m2
08:29 47.5 °F /  8.6 °C 40.3 °F /  4.6 °C 29.80in /  1009hPa NW 6.1mph /  9.8km/h 11mph /  17.7km/h 76% 0.00in /  0mm 37 W/m2
08:34 47.5 °F /  8.6 °C 40.3 °F /  4.6 °C 29.81in /  1009.4hPa WNW 8.2mph /  13.2km/h 13mph /  20.9km/h 76% 0.00in /  0mm 42 W/m2
08:39 47.5 °F /  8.6 °C 40.6 °F /  4.8 °C 29.82in /  1009.7hPa WNW 9.6mph /  15.4km/h 21mph /  33.8km/h 77% 0.00in /  0mm 26 W/m2
08:44 47.5 °F /  8.6 °C 40.6 °F /  4.8 °C 29.83in /  1010hPa NW 7.4mph /  11.9km/h 21mph /  33.8km/h 77% 0.00in /  0mm 26 W/m2
08:49 47.2 °F /  8.4 °C 40.5 °F /  4.7 °C 29.83in /  1010hPa NW 7mph /  11.3km/h 11mph /  17.7km/h 77.3% 0.00in /  0mm 33 W/m2
08:54 47 °F /  8.3 °C 40.7 °F /  4.8 °C 29.83in /  1010hPa WNW 5.6mph /  9km/h 12mph /  19.3km/h 78.4% 0.00in /  0mm 58 W/m2
08:59 47.1 °F /  8.4 °C 41 °F /  5 °C 29.84in /  1010.4hPa WNW 4.6mph /  7.4km/h 12mph /  19.3km/h 79% 0.00in /  0mm 37 W/m2
09:04 47.1 °F /  8.4 °C 41.1 °F /  5.1 °C 29.84in /  1010.4hPa WNW 4.8mph /  7.7km/h 11mph /  17.7km/h 79.2% 0.00in /  0mm 46 W/m2
09:09 47.1 °F /  8.4 °C 41.2 °F /  5.1 °C 29.85in /  1010.7hPa WNW 3.5mph /  5.6km/h 8mph /  12.9km/h 79.4% 0.00in /  0mm 46 W/m2
09:14 47.1 °F /  8.4 °C 41.4 °F /  5.2 °C 29.85in /  1010.7hPa WNW 7.2mph /  11.6km/h 11mph /  17.7km/h 80% 0.00in /  0mm 65 W/m2
09:19 47.2 °F /  8.4 °C 41.1 °F /  5.1 °C 29.86in /  1011.1hPa WNW 6mph /  9.7km/h 10mph /  16.1km/h 79% 0.00in /  0mm 37 W/m2
09:24 47.3 °F /  8.5 °C 41.2 °F /  5.1 °C 29.86in /  1011.1hPa West 3.2mph /  5.1km/h 10mph /  16.1km/h 79% 0.00in /  0mm 54 W/m2
09:29 47.3 °F /  8.5 °C 41.2 °F /  5.1 °C 29.87in /  1011.4hPa WNW 6mph /  9.7km/h 12mph /  19.3km/h 79% 0.00in /  0mm 42 W/m2
09:34 47.6 °F /  8.7 °C 41.1 °F /  5.1 °C 29.88in /  1011.7hPa WNW 6.7mph /  10.8km/h 13mph /  20.9km/h 77.8% 0.00in /  0mm 44 W/m2
09:39 48 °F /  8.9 °C 40.5 °F /  4.7 °C 29.88in /  1011.7hPa WNW 8.3mph /  13.4km/h 17mph /  27.4km/h 75.2% 0.00in /  0mm 54 W/m2
09:44 48.4 °F /  9.1 °C 39.9 °F /  4.4 °C 29.89in /  1012.1hPa WNW 7.1mph /  11.4km/h 13mph /  20.9km/h 72.6% 0.00in /  0mm 56 W/m2
09:49 48.4 °F /  9.1 °C 39.9 °F /  4.4 °C 29.89in /  1012.1hPa WNW 7.8mph /  12.6km/h 16mph /  25.7km/h 72.4% 0.00in /  0mm 62 W/m2
09:53 48.6 °F /  9.2 °C 40.2 °F /  4.6 °C 29.90in /  1012.4hPa WNW 6.7mph /  10.8km/h 12mph /  19.3km/h 72.8% 0.00in /  0mm 65 W/m2
09:59 48.6 °F /  9.2 °C 40.3 °F /  4.6 °C 29.90in /  1012.4hPa WNW 5.2mph /  8.4km/h 11mph /  17.7km/h 73% 0.00in /  0mm 86 W/m2
10:04 48.6 °F /  9.2 °C 40.6 °F /  4.8 °C 29.91in /  1012.8hPa WNW 8.4mph /  13.5km/h 14mph /  22.5km/h 73.8% 0.00in /  0mm 120 W/m2
10:09 48.6 °F /  9.2 °C 40.9 °F /  4.9 °C 29.91in /  1012.8hPa WNW 5.2mph /  8.4km/h 13mph /  20.9km/h 74.6% 0.00in /  0mm 148 W/m2
10:14 48.6 °F /  9.2 °C 41 °F /  5 °C 29.92in /  1013.1hPa NW 10mph /  16.1km/h 23mph /  37km/h 75% 0.00in /  0mm 84 W/m2
10:19 48.2 °F /  9 °C 40.3 °F /  4.6 °C 29.93in /  1013.4hPa WNW 13.6mph /  21.9km/h 32mph /  51.5km/h 73.8% 0.00in /  0mm 79 W/m2
10:24 48 °F /  8.9 °C 40.4 °F /  4.7 °C 29.93in /  1013.4hPa NW 6.8mph /  10.9km/h 32mph /  51.5km/h 74.8% 0.00in /  0mm 84 W/m2
10:29 47.8 °F /  8.8 °C 40.3 °F /  4.6 °C 29.93in /  1013.4hPa WNW 14.8mph /  23.8km/h 32mph /  51.5km/h 75% 0.00in /  0mm 60 W/m2
10:34 47.8 °F /  8.8 °C 40.3 °F /  4.6 °C 29.93in /  1013.4hPa WNW 8.8mph /  14.2km/h 32mph /  51.5km/h 75% 0.00in /  0mm 132 W/m2
10:39 48 °F /  8.9 °C 40 °F /  4.4 °C 29.94in /  1013.8hPa NW 11mph /  17.7km/h 16mph /  25.7km/h 73.8% 0.00in /  0mm 165 W/m2
10:44 48.1 °F /  8.9 °C 39.6 °F /  4.2 °C 29.94in /  1013.8hPa NW 8.8mph /  14.2km/h 16mph /  25.7km/h 72.2% 0.00in /  0mm 93 W/m2
10:49 48 °F /  8.9 °C 39.4 °F /  4.1 °C 29.94in /  1013.8hPa WNW 10.6mph /  17.1km/h 17mph /  27.4km/h 72% 0.00in /  0mm 204 W/m2
10:54 48.3 °F /  9.1 °C 39.7 °F /  4.3 °C 29.95in /  1014.1hPa WNW 7mph /  11.3km/h 14mph /  22.5km/h 72.3% 0.00in /  0mm 227 W/m2
10:59 48.2 °F /  9 °C 39.8 °F /  4.3 °C 29.96in /  1014.4hPa NNW 10.4mph /  16.7km/h 23mph /  37km/h 72.6% 0.00in /  0mm 49 W/m2
11:04 46.4 °F /  8 °C 39.4 °F /  4.1 °C 29.97in /  1014.8hPa NW 9.4mph /  15.1km/h 23mph /  37km/h 76.4% 0.01in /  0.25mm 62 W/m2
11:09 45.5 °F /  7.5 °C 39.5 °F /  4.2 °C 29.98in /  1015.1hPa North 7.2mph /  11.6km/h 17mph /  27.4km/h 79.4% 0.01in /  0.25mm 62 W/m2
11:14 44.8 °F /  7.1 °C 39.4 °F /  4.1 °C 29.97in /  1014.8hPa NW 6.4mph /  10.3km/h 19mph /  30.6km/h 81.4% 0.02in /  0.51mm 39 W/m2
11:19 44.4 °F /  6.9 °C 39.3 °F /  4.1 °C 29.97in /  1014.8hPa WNW 4mph /  6.4km/h 9mph /  14.5km/h 82.2% 0.02in /  0.51mm 149 W/m2
11:24 44.8 °F /  7.1 °C 40.3 °F /  4.6 °C 29.98in /  1015.1hPa WNW 2.1mph /  3.4km/h 5mph /  8km/h 84.2% 0.02in /  0.51mm 151 W/m2
11:29 45.2 °F /  7.3 °C 40.8 °F /  4.9 °C 29.98in /  1015.1hPa NW 4.6mph /  7.4km/h 11mph /  17.7km/h 84.4% 0.02in /  0.51mm 155 W/m2
11:34 45.8 °F /  7.7 °C 41.1 °F /  5.1 °C 29.98in /  1015.1hPa WNW 4.9mph /  7.9km/h 10mph /  16.1km/h 83.4% 0.02in /  0.51mm 158 W/m2
11:39 46.3 °F /  7.9 °C 41 °F /  5 °C 29.99in /  1015.5hPa WNW 6.3mph /  10.1km/h 11mph /  17.7km/h 81.8% 0.02in /  0.51mm 160 W/m2
11:44 46.7 °F /  8.2 °C 41.1 °F /  5.1 °C 29.99in /  1015.5hPa WNW 5.4mph /  8.7km/h 9mph /  14.5km/h 81% 0.02in /  0.51mm 163 W/m2
11:49 47 °F /  8.3 °C 41.2 °F /  5.1 °C 30.00in /  1015.8hPa WNW 6.4mph /  10.3km/h 9mph /  14.5km/h 79.8% 0.02in /  0.51mm 169 W/m2
11:54 47.3 °F /  8.5 °C 41 °F /  5 °C 30.00in /  1015.8hPa WNW 7mph /  11.3km/h 10mph /  16.1km/h 78.5% 0.02in /  0.51mm 174 W/m2
11:59 47.7 °F /  8.7 °C 40.9 °F /  4.9 °C 30.00in /  1015.8hPa WNW 4.8mph /  7.7km/h 10mph /  16.1km/h 77.2% 0.02in /  0.51mm 179 W/m2
12:04 48.2 °F /  9 °C 40.9 °F /  4.9 °C 30.00in /  1015.8hPa WNW 5.9mph /  9.5km/h 11mph /  17.7km/h 75.8% 0.01in /  0.25mm 188 W/m2
12:09 48.7 °F /  9.3 °C 40.8 °F /  4.9 °C 30.01in /  1016.1hPa West 11mph /  17.7km/h 16mph /  25.7km/h 74.2% 0.01in /  0.25mm 185 W/m2
12:14 49 °F /  9.4 °C 40.1 °F /  4.5 °C 30.01in /  1016.1hPa WNW 5.8mph /  9.3km/h 16mph /  25.7km/h 71.2% 0.00in /  0mm 209 W/m2
12:19 49.3 °F /  9.6 °C 40.2 °F /  4.6 °C 30.02in /  1016.5hPa WNW 8mph /  12.9km/h 14mph /  22.5km/h 70.8% 0.00in /  0mm 216 W/m2
12:24 49.4 °F /  9.7 °C 39.7 °F /  4.3 °C 30.02in /  1016.5hPa WNW 11.6mph /  18.7km/h 17mph /  27.4km/h 69% 0.00in /  0mm 241 W/m2
12:29 49.4 °F /  9.7 °C 39.5 °F /  4.2 °C 30.03in /  1016.8hPa NW 6.8mph /  10.9km/h 15mph /  24.1km/h 68.6% 0.00in /  0mm 260 W/m2
12:34 49.6 °F /  9.8 °C 39.5 °F /  4.2 °C 30.03in /  1016.8hPa WNW 8.8mph /  14.2km/h 14mph /  22.5km/h 67.8% 0.00in /  0mm 276 W/m2
12:39 49.8 °F /  9.9 °C 40.2 °F /  4.6 °C 30.03in /  1016.8hPa NW 9mph /  14.5km/h 14mph /  22.5km/h 69.2% 0.00in /  0mm 287 W/m2
12:44 50.2 °F /  10.1 °C 40.9 °F /  4.9 °C 30.04in /  1017.2hPa NW 7.5mph /  12.1km/h 13mph /  20.9km/h 70.2% 0.00in /  0mm 283 W/m2
12:49 50.5 °F /  10.3 °C 41.4 °F /  5.2 °C 30.04in /  1017.2hPa WNW 8.4mph /  13.5km/h 14mph /  22.5km/h 70.8% 0.00in /  0mm 163 W/m2
12:54 50.3 °F /  10.2 °C 41.3 °F /  5.2 °C 30.04in /  1017.2hPa West 8.6mph /  13.8km/h 18mph /  29km/h 71% 0.00in /  0mm 250 W/m2
12:59 50.3 °F /  10.2 °C 41.3 °F /  5.2 °C 30.04in /  1017.2hPa WNW 10.8mph /  17.4km/h 18mph /  29km/h 71.2% 0.00in /  0mm 169 W/m2
13:04 49.7 °F /  9.8 °C 41 °F /  5 °C 30.05in /  1017.5hPa WNW 8.6mph /  13.8km/h 15mph /  24.1km/h 71.6% 0.00in /  0mm 160 W/m2
13:09 49.6 °F /  9.8 °C 41.2 °F /  5.1 °C 30.05in /  1017.5hPa West 7.8mph /  12.6km/h 18mph /  29km/h 72.6% 0.00in /  0mm 77 W/m2
13:14 49.3 °F /  9.6 °C 41 °F /  5 °C 30.06in /  1017.8hPa NW 6.8mph /  10.9km/h 14mph /  22.5km/h 73% 0.00in /  0mm 165 W/m2
13:19 49.4 °F /  9.7 °C 40.7 °F /  4.8 °C 30.06in /  1017.8hPa WNW 7.8mph /  12.6km/h 17mph /  27.4km/h 71.8% 0.00in /  0mm 165 W/m2
13:24 49.6 °F /  9.8 °C 40.3 °F /  4.6 °C 30.06in /  1017.8hPa WNW 9.3mph /  15km/h 18mph /  29km/h 70.3% 0.00in /  0mm 153 W/m2
13:29 49.6 °F /  9.8 °C 40.1 °F /  4.5 °C 30.07in /  1018.2hPa NW 9mph /  14.5km/h 19mph /  30.6km/h 69.6% 0.00in /  0mm 171 W/m2
13:34 49.7 °F /  9.8 °C 40.2 °F /  4.6 °C 30.07in /  1018.2hPa NW 6mph /  9.7km/h 19mph /  30.6km/h 69.4% 0.00in /  0mm 165 W/m2
13:39 49.8 °F /  9.9 °C 40.2 °F /  4.6 °C 30.07in /  1018.2hPa WNW 5.4mph /  8.7km/h 12mph /  19.3km/h 69.2% 0.00in /  0mm 171 W/m2
13:44 49.8 °F /  9.9 °C 40 °F /  4.4 °C 30.08in /  1018.5hPa WNW 8mph /  12.9km/h 14mph /  22.5km/h 68.6% 0.00in /  0mm 169 W/m2
13:49 49.8 °F /  9.9 °C 39.8 °F /  4.3 °C 30.08in /  1018.5hPa WNW 7.4mph /  11.9km/h 12mph /  19.3km/h 68.4% 0.00in /  0mm 58 W/m2
13:54 49.5 °F /  9.7 °C 39.7 °F /  4.3 °C 30.08in /  1018.5hPa WNW 6mph /  9.7km/h 13mph /  20.9km/h 68.8% 0.00in /  0mm 84 W/m2
13:59 49.5 °F /  9.7 °C 40.3 °F /  4.6 °C 30.08in /  1018.5hPa WNW 5.7mph /  9.2km/h 12mph /  19.3km/h 70.5% 0.00in /  0mm 156 W/m2
14:04 49.5 °F /  9.7 °C 40.6 °F /  4.8 °C 30.09in /  1018.8hPa WNW 5.2mph /  8.4km/h 11mph /  17.7km/h 71.4% 0.00in /  0mm 125 W/m2
14:09 49.5 °F /  9.7 °C 40.3 °F /  4.6 °C 30.09in /  1018.8hPa WNW 8.4mph /  13.5km/h 16mph /  25.7km/h 70.6% 0.00in /  0mm 111 W/m2
14:14 49.5 °F /  9.7 °C 40.4 °F /  4.7 °C 30.10in /  1019.2hPa WNW 4.8mph /  7.7km/h 12mph /  19.3km/h 70.8% 0.00in /  0mm 125 W/m2
14:18 49.5 °F /  9.7 °C 40.8 °F /  4.9 °C 30.10in /  1019.2hPa WNW 4.2mph /  6.8km/h 8mph /  12.9km/h 71.8% 0.00in /  0mm 100 W/m2
14:24 49.6 °F /  9.8 °C 41 °F /  5 °C 30.10in /  1019.2hPa NW 4.4mph /  7.1km/h 11mph /  17.7km/h 72% 0.00in /  0mm 98 W/m2
14:29 49.5 °F /  9.7 °C 40.7 °F /  4.8 °C 30.10in /  1019.2hPa WNW 7.4mph /  11.9km/h 14mph /  22.5km/h 71.8% 0.00in /  0mm 90 W/m2
14:34 49.5 °F /  9.7 °C 40.3 °F /  4.6 °C 30.11in /  1019.5hPa WNW 2.5mph /  4km/h 12mph /  19.3km/h 70.4% 0.00in /  0mm 84 W/m2
14:39 49.5 °F /  9.7 °C 40.1 °F /  4.5 °C 30.11in /  1019.5hPa WNW 8.4mph /  13.5km/h 13mph /  20.9km/h 70% 0.00in /  0mm 84 W/m2
14:44 49.5 °F /  9.7 °C 40.1 °F /  4.5 °C 30.11in /  1019.5hPa NW 5.7mph /  9.2km/h 9mph /  14.5km/h 70% 0.00in /  0mm 63 W/m2
14:49 49.4 °F /  9.7 °C 40 °F /  4.4 °C 30.11in /  1019.5hPa NW 7mph /  11.3km/h 11mph /  17.7km/h 70% 0.00in /  0mm 58 W/m2
14:54 49.2 °F /  9.6 °C 39.9 °F /  4.4 °C 30.11in /  1019.5hPa WNW 6.2mph /  10km/h 11mph /  17.7km/h 70.2% 0.00in /  0mm 47 W/m2
14:59 49 °F /  9.4 °C 39.9 °F /  4.4 °C 30.11in /  1019.5hPa NW 6.8mph /  10.9km/h 12mph /  19.3km/h 70.8% 0.00in /  0mm 46 W/m2
15:04 48.9 °F /  9.4 °C 39.7 °F /  4.3 °C 30.12in /  1019.9hPa NW 7.1mph /  11.4km/h 14mph /  22.5km/h 70.4% 0.00in /  0mm 40 W/m2
15:09 48.9 °F /  9.4 °C 39.4 °F /  4.1 °C 30.12in /  1019.9hPa NW 4.5mph /  7.2km/h 14mph /  22.5km/h 69.4% 0.00in /  0mm 32 W/m2
15:14 48.7 °F /  9.3 °C 39.4 °F /  4.1 °C 30.12in /  1019.9hPa WNW 4.6mph /  7.4km/h 12mph /  19.3km/h 69.8% 0.00in /  0mm 28 W/m2
15:19 48.6 °F /  9.2 °C 39.2 °F /  4 °C 30.12in /  1019.9hPa NW 5.8mph /  9.3km/h 12mph /  19.3km/h 70% 0.00in /  0mm 25 W/m2
15:24 48.4 °F /  9.1 °C 39 °F /  3.9 °C 30.12in /  1019.9hPa WNW 5mph /  8km/h 11mph /  17.7km/h 70% 0.00in /  0mm 23 W/m2
15:29 48 °F /  8.9 °C 38.8 °F /  3.8 °C 30.13in /  1020.2hPa WNW 4.8mph /  7.7km/h 9mph /  14.5km/h 70.2% 0.00in /  0mm 21 W/m2
15:34 48 °F /  8.9 °C 39 °F /  3.9 °C 30.13in /  1020.2hPa NW 3.3mph /  5.3km/h 8mph /  12.9km/h 71% 0.00in /  0mm 19 W/m2
15:39 47.8 °F /  8.8 °C 39 °F /  3.9 °C 30.14in /  1020.5hPa WNW 5.2mph /  8.4km/h 9mph /  14.5km/h 71.8% 0.00in /  0mm 16 W/m2
15:44 47.5 °F /  8.6 °C 38.8 °F /  3.8 °C 30.14in /  1020.5hPa WNW 2.6mph /  4.2km/h 6mph /  9.7km/h 72% 0.00in /  0mm 14 W/m2
15:49 47.2 °F /  8.4 °C 38.8 °F /  3.8 °C 30.14in /  1020.5hPa WNW 6.8mph /  10.9km/h 12mph /  19.3km/h 72.6% 0.00in /  0mm 12 W/m2
15:54 47.1 °F /  8.4 °C 38.8 °F /  3.8 °C 30.14in /  1020.5hPa NW 2.4mph /  3.9km/h 8mph /  12.9km/h 73% 0.00in /  0mm 11 W/m2
15:59 46.9 °F /  8.3 °C 38.7 °F /  3.7 °C 30.15in /  1020.9hPa NW 2.2mph /  3.5km/h 6mph /  9.7km/h 73% 0.00in /  0mm 7 W/m2
16:04 46.9 °F /  8.3 °C 38.7 °F /  3.7 °C 30.16in /  1021.2hPa WNW 2.5mph /  4km/h 5mph /  8km/h 73.2% 0.00in /  0mm 5 W/m2
16:09 46.5 °F /  8.1 °C 38.6 °F /  3.7 °C 30.16in /  1021.2hPa West 2.8mph /  4.5km/h 5mph /  8km/h 74% 0.00in /  0mm 0 W/m2
16:14 46.1 °F /  7.8 °C 38.4 °F /  3.6 °C 30.16in /  1021.2hPa West 3.5mph /  5.6km/h 7mph /  11.3km/h 74.2% 0.00in /  0mm 0 W/m2
16:18 46 °F /  7.8 °C 38.5 °F /  3.6 °C 30.16in /  1021.2hPa West 4.7mph /  7.6km/h 7mph /  11.3km/h 74.8% 0.00in /  0mm 0 W/m2
16:24 46 °F /  7.8 °C 38.5 °F /  3.6 °C 30.17in /  1021.6hPa WNW 3.6mph /  5.8km/h 7mph /  11.3km/h 74.6% 0.00in /  0mm 0 W/m2
16:29 45.9 °F /  7.7 °C 38.3 °F /  3.5 °C 30.16in /  1021.2hPa West 2.5mph /  4km/h 5mph /  8km/h 75% 0.00in /  0mm 0 W/m2
16:34 45.7 °F /  7.6 °C 38.3 °F /  3.5 °C 30.17in /  1021.6hPa WNW 2.8mph /  4.5km/h 6mph /  9.7km/h 75% 0.00in /  0mm 0 W/m2
16:39 45.7 °F /  7.6 °C 38.3 °F /  3.5 °C 30.17in /  1021.6hPa WNW 2.5mph /  4km/h 6mph /  9.7km/h 75% 0.00in /  0mm 0 W/m2
16:44 45.5 °F /  7.5 °C 38.1 °F /  3.4 °C 30.18in /  1021.9hPa WNW 2.3mph /  3.7km/h 6mph /  9.7km/h 75% 0.00in /  0mm 0 W/m2
16:49 45.3 °F /  7.4 °C 38 °F /  3.3 °C 30.18in /  1021.9hPa WNW 1.2mph /  1.9km/h 5mph /  8km/h 75.6% 0.00in /  0mm 0 W/m2
16:54 45.3 °F /  7.4 °C 38.1 °F /  3.4 °C 30.19in /  1022.2hPa WNW 2.1mph /  3.4km/h 6mph /  9.7km/h 75.8% 0.00in /  0mm 0 W/m2
16:58 45.1 °F /  7.3 °C 37.9 °F /  3.3 °C 30.19in /  1022.2hPa WNW 0.5mph /  0.8km/h 4mph /  6.4km/h 76% 0.00in /  0mm 0 W/m2
17:04 44.9 °F /  7.2 °C 37.9 °F /  3.3 °C 30.20in /  1022.6hPa WNW 2mph /  3.2km/h 5mph /  8km/h 76% 0.00in /  0mm 0 W/m2
17:09 44.7 °F /  7.1 °C 37.7 °F /  3.2 °C 30.19in /  1022.2hPa WNW 3.8mph /  6.1km/h 10mph /  16.1km/h 76% 0.00in /  0mm 0 W/m2
17:14 44.8 °F /  7.1 °C 37.8 °F /  3.2 °C 30.20in /  1022.6hPa WNW 1.8mph /  2.9km/h 10mph /  16.1km/h 76% 0.00in /  0mm 0 W/m2
17:19 44.7 °F /  7.1 °C 37.8 °F /  3.2 °C 30.20in /  1022.6hPa WNW 1mph /  1.6km/h 5mph /  8km/h 76.2% 0.00in /  0mm 0 W/m2
17:24 44.5 °F /  6.9 °C 37.7 °F /  3.2 °C 30.20in /  1022.6hPa WNW 0.2mph /  0.3km/h 7mph /  11.3km/h 77% 0.00in /  0mm 0 W/m2
17:29 44.3 °F /  6.8 °C 37.6 °F /  3.1 °C 30.20in /  1022.6hPa Calm     76.8% 0.00in /  0mm 0 W/m2
17:34 44 °F /  6.7 °C 37.4 °F /  3 °C 30.21in /  1022.9hPa Calm     77% 0.00in /  0mm 0 W/m2
17:39 43.7 °F /  6.5 °C 37 °F /  2.8 °C 30.21in /  1022.9hPa WNW 0.7mph /  1.1km/h 3mph /  4.8km/h 77% 0.00in /  0mm 0 W/m2
17:44 43.3 °F /  6.3 °C 36.7 °F /  2.6 °C 30.21in /  1022.9hPa WNW 1.2mph /  1.9km/h 5mph /  8km/h 77% 0.00in /  0mm 0 W/m2
17:49 43.1 °F /  6.2 °C 36.3 °F /  2.4 °C 30.21in /  1022.9hPa WNW 1.5mph /  2.4km/h 4mph /  6.4km/h 77% 0.00in /  0mm 0 W/m2
17:54 42.6 °F /  5.9 °C 36.1 °F /  2.3 °C 30.22in /  1023.2hPa WNW 1.3mph /  2.1km/h 3mph /  4.8km/h 77.2% 0.00in /  0mm 0 W/m2
17:59 42.6 °F /  5.9 °C 36.3 °F /  2.4 °C 30.22in /  1023.2hPa WNW 1.2mph /  1.9km/h 4mph /  6.4km/h 78% 0.00in /  0mm 0 W/m2
18:04 42.4 °F /  5.8 °C 36.1 °F /  2.3 °C 30.22in /  1023.2hPa Calm   1mph /  1.6km/h 78% 0.00in /  0mm 0 W/m2
18:09 42.3 °F /  5.7 °C 36 °F /  2.2 °C 30.22in /  1023.2hPa Calm     78% 0.00in /  0mm 0 W/m2
18:14 41.7 °F /  5.4 °C 35.4 °F /  1.9 °C 30.23in /  1023.6hPa WNW 0.2mph /  0.3km/h 2mph /  3.2km/h 78% 0.00in /  0mm 0 W/m2
18:19 41.4 °F /  5.2 °C 35.3 °F /  1.8 °C 30.23in /  1023.6hPa Calm   1mph /  1.6km/h 78.6% 0.00in /  0mm 0 W/m2
18:24 41.2 °F /  5.1 °C 35.4 °F /  1.9 °C 30.23in /  1023.6hPa WNW 0.2mph /  0.3km/h 1mph /  1.6km/h 79.6% 0.00in /  0mm 0 W/m2
18:29 40.8 °F /  4.9 °C 35.2 °F /  1.8 °C 30.22in /  1023.2hPa WNW 0.5mph /  0.8km/h 2mph /  3.2km/h 80.3% 0.00in /  0mm 0 W/m2
18:34 40.6 °F /  4.8 °C 35.2 °F /  1.8 °C 30.22in /  1023.2hPa WNW 0.2mph /  0.3km/h 2mph /  3.2km/h 81% 0.00in /  0mm 0 W/m2
18:39 40.5 °F /  4.7 °C 35.4 °F /  1.9 °C 30.22in /  1023.2hPa WNW 0.2mph /  0.3km/h 2mph /  3.2km/h 82% 0.00in /  0mm 0 W/m2
18:44 40.3 °F /  4.6 °C 35.2 °F /  1.8 °C 30.23in /  1023.6hPa WNW 1.2mph /  1.9km/h 3mph /  4.8km/h 82.2% 0.00in /  0mm 0 W/m2
18:49 39.9 °F /  4.4 °C 35.2 °F /  1.8 °C 30.23in /  1023.6hPa WNW 0.8mph /  1.3km/h 2mph /  3.2km/h 83% 0.00in /  0mm 0 W/m2
18:54 39.6 °F /  4.2 °C 35 °F /  1.7 °C 30.24in /  1023.9hPa WNW 1.8mph /  2.9km/h 4mph /  6.4km/h 83.6% 0.00in /  0mm 0 W/m2
18:59 39 °F /  3.9 °C 34.5 °F /  1.4 °C 30.24in /  1023.9hPa WNW 2.4mph /  3.9km/h 5mph /  8km/h 84% 0.00in /  0mm 0 W/m2
19:04 39 °F /  3.9 °C 34.9 °F /  1.6 °C 30.24in /  1023.9hPa WNW 3.5mph /  5.6km/h 5mph /  8km/h 85% 0.00in /  0mm 0 W/m2
19:09 39.2 °F /  4 °C 35.1 °F /  1.7 °C 30.24in /  1023.9hPa WNW 3.2mph /  5.1km/h 5mph /  8km/h 85% 0.00in /  0mm 0 W/m2
19:14 39.4 °F /  4.1 °C 35.5 °F /  1.9 °C 30.24in /  1023.9hPa WNW 1mph /  1.6km/h 4mph /  6.4km/h 85.6% 0.00in /  0mm 0 W/m2
19:19 39.6 °F /  4.2 °C 35.8 °F /  2.1 °C 30.24in /  1023.9hPa Calm   5mph /  8km/h 86% 0.00in /  0mm 0 W/m2
19:24 39.3 °F /  4.1 °C 35.3 °F /  1.8 °C 30.25in /  1024.3hPa Calm     85.4% 0.00in /  0mm 0 W/m2
19:29 38.9 °F /  3.8 °C 34.8 °F /  1.6 °C 30.25in /  1024.3hPa WNW 1.6mph /  2.6km/h 4mph /  6.4km/h 85% 0.00in /  0mm 0 W/m2
19:34 38.9 °F /  3.8 °C 35.1 °F /  1.7 °C 30.25in /  1024.3hPa WNW 3.4mph /  5.5km/h 4mph /  6.4km/h 85.8% 0.00in /  0mm 0 W/m2
19:39 39 °F /  3.9 °C 35.2 °F /  1.8 °C 30.26in /  1024.6hPa WNW 2.4mph /  3.9km/h 4mph /  6.4km/h 86% 0.00in /  0mm 0 W/m2
19:44 38.6 °F /  3.7 °C 34.9 °F /  1.6 °C 30.25in /  1024.3hPa WNW 0.8mph /  1.3km/h 3mph /  4.8km/h 86% 0.00in /  0mm 0 W/m2
19:49 38.5 °F /  3.6 °C 34.7 °F /  1.5 °C 30.25in /  1024.3hPa Calm   3mph /  4.8km/h 86% 0.00in /  0mm 0 W/m2
19:54 38.3 °F /  3.5 °C 34.5 °F /  1.4 °C 30.26in /  1024.6hPa Calm     86% 0.00in /  0mm 0 W/m2
19:59 38.2 °F /  3.4 °C 34.5 °F /  1.4 °C 30.26in /  1024.6hPa WNW 0.2mph /  0.3km/h 2mph /  3.2km/h 86.4% 0.00in /  0mm 0 W/m2
20:04 38 °F /  3.3 °C 34.3 °F /  1.3 °C 30.26in /  1024.6hPa WNW 2.4mph /  3.9km/h 4mph /  6.4km/h 86.6% 0.00in /  0mm 0 W/m2
20:09 37.9 °F /  3.3 °C 34.3 °F /  1.3 °C 30.26in /  1024.6hPa WNW 1.2mph /  1.9km/h 4mph /  6.4km/h 87% 0.00in /  0mm 0 W/m2
20:14 37.9 °F /  3.3 °C 34.3 °F /  1.3 °C 30.26in /  1024.6hPa Calm   1mph /  1.6km/h 87% 0.00in /  0mm 0 W/m2
20:19 37.8 °F /  3.2 °C 34.2 °F /  1.2 °C 30.26in /  1024.6hPa Calm   1mph /  1.6km/h 87% 0.00in /  0mm 0 W/m2
20:24 37.8 °F /  3.2 °C 34.2 °F /  1.2 °C 30.26in /  1024.6hPa Calm     87% 0.00in /  0mm 0 W/m2
20:29 37.5 °F /  3.1 °C 34.2 °F /  1.2 °C 30.26in /  1024.6hPa WNW 0.5mph /  0.8km/h 2mph /  3.2km/h 87.8% 0.00in /  0mm 0 W/m2
20:34 37.3 °F /  2.9 °C 34.1 °F /  1.2 °C 30.26in /  1024.6hPa Calm   2mph /  3.2km/h 88% 0.00in /  0mm 0 W/m2
20:39 37 °F /  2.8 °C 33.8 °F /  1 °C 30.26in /  1024.6hPa Calm   2mph /  3.2km/h 88% 0.00in /  0mm 0 W/m2
20:44 37 °F /  2.8 °C 33.8 °F /  1 °C 30.26in /  1024.6hPa Calm   2mph /  3.2km/h 88% 0.00in /  0mm 0 W/m2
20:49 36.9 °F /  2.7 °C 33.7 °F /  0.9 °C 30.26in /  1024.6hPa WNW 0.4mph /  0.6km/h 3mph /  4.8km/h 88% 0.00in /  0mm 0 W/m2
20:54 36.7 °F /  2.6 °C 33.4 °F /  0.8 °C 30.26in /  1024.6hPa WNW 2mph /  3.2km/h 4mph /  6.4km/h 88% 0.00in /  0mm 0 W/m2
20:59 36.7 °F /  2.6 °C 33.4 °F /  0.8 °C 30.26in /  1024.6hPa Calm   3mph /  4.8km/h 88% 0.00in /  0mm 0 W/m2
21:04 36.7 °F /  2.6 °C 33.7 °F /  0.9 °C 30.27in /  1024.9hPa Calm     88.8% 0.00in /  0mm 0 W/m2
21:09 36.5 °F /  2.5 °C 33.6 °F /  0.9 °C 30.27in /  1024.9hPa Calm     89% 0.00in /  0mm 0 W/m2
21:14 36.3 °F /  2.4 °C 33.4 °F /  0.8 °C 30.27in /  1024.9hPa Calm     89% 0.00in /  0mm 0 W/m2
21:19 36 °F /  2.2 °C 33.2 °F /  0.7 °C 30.27in /  1024.9hPa WNW 1.6mph /  2.6km/h 4mph /  6.4km/h 89% 0.00in /  0mm 0 W/m2
21:24 35.9 °F /  2.2 °C 33 °F /  0.6 °C 30.27in /  1024.9hPa WNW 1.5mph /  2.4km/h 4mph /  6.4km/h 89% 0.00in /  0mm 0 W/m2
21:29 35.8 °F /  2.1 °C 32.9 °F /  0.5 °C 30.28in /  1025.3hPa WNW 2.1mph /  3.4km/h 6mph /  9.7km/h 89% 0.00in /  0mm 0 W/m2
21:34 35.9 °F /  2.2 °C 33 °F /  0.6 °C 30.28in /  1025.3hPa Calm   2mph /  3.2km/h 89% 0.00in /  0mm 0 W/m2
21:39 36 °F /  2.2 °C 33.2 °F /  0.7 °C 30.27in /  1024.9hPa Calm     89.6% 0.00in /  0mm 0 W/m2
21:44 35.8 °F /  2.1 °C 33.1 °F /  0.6 °C 30.27in /  1024.9hPa WNW 0.2mph /  0.3km/h 2mph /  3.2km/h 90% 0.00in /  0mm 0 W/m2
21:49 35.8 °F /  2.1 °C 33.1 °F /  0.6 °C 30.27in /  1024.9hPa Calm   2mph /  3.2km/h 90% 0.00in /  0mm 0 W/m2
21:54 35.8 °F /  2.1 °C 33.1 °F /  0.6 °C 30.27in /  1024.9hPa Calm   2mph /  3.2km/h 90% 0.00in /  0mm 0 W/m2
21:59 35.8 °F /  2.1 °C 33.1 °F /  0.6 °C 30.27in /  1024.9hPa Calm   2mph /  3.2km/h 90% 0.00in /  0mm 0 W/m2
22:04 35.7 °F /  2.1 °C 33 °F /  0.6 °C 30.27in /  1024.9hPa WNW 0.2mph /  0.3km/h 1mph /  1.6km/h 90% 0.00in /  0mm 0 W/m2
22:09 35.4 °F /  1.9 °C 32.7 °F /  0.4 °C 30.27in /  1024.9hPa Calm   1mph /  1.6km/h 90% 0.00in /  0mm 0 W/m2
22:14 35.4 °F /  1.9 °C 32.7 °F /  0.4 °C 30.27in /  1024.9hPa Calm     90% 0.00in /  0mm 0 W/m2
22:19 35.4 °F /  1.9 °C 32.7 °F /  0.4 °C 30.27in /  1024.9hPa WNW 0.2mph /  0.3km/h 1mph /  1.6km/h 90% 0.00in /  0mm 0 W/m2
22:24 35.4 °F /  1.9 °C 32.7 °F /  0.4 °C 30.27in /  1024.9hPa WNW 0.2mph /  0.3km/h 1mph /  1.6km/h 90% 0.00in /  0mm 0 W/m2
22:29 35.4 °F /  1.9 °C 32.7 °F /  0.4 °C 30.27in /  1024.9hPa Calm   1mph /  1.6km/h 90% 0.00in /  0mm 0 W/m2
22:34 35.4 °F /  1.9 °C 32.9 °F /  0.5 °C 30.27in /  1024.9hPa Calm     90.5% 0.00in /  0mm 0 W/m2
22:39 35.4 °F /  1.9 °C 33 °F /  0.6 °C 30.27in /  1024.9hPa Calm     90.8% 0.00in /  0mm 0 W/m2
22:44 35.3 °F /  1.8 °C 33 °F /  0.6 °C 30.27in /  1024.9hPa WNW 0.9mph /  1.4km/h 2mph /  3.2km/h 91% 0.00in /  0mm 0 W/m2
22:49 35.2 °F /  1.8 °C 32.9 °F /  0.5 °C 30.27in /  1024.9hPa WNW 0.4mph /  0.6km/h 2mph /  3.2km/h 91% 0.00in /  0mm 0 W/m2
22:54 35.2 °F /  1.8 °C 32.9 °F /  0.5 °C 30.27in /  1024.9hPa Calm     91% 0.00in /  0mm 0 W/m2
22:59 35.2 °F /  1.8 °C 32.9 °F /  0.5 °C 30.27in /  1024.9hPa Calm     91% 0.00in /  0mm 0 W/m2
23:04 35.2 °F /  1.8 °C 32.8 °F /  0.4 °C 30.27in /  1024.9hPa Calm     91% 0.00in /  0mm 0 W/m2
23:09 35.1 °F /  1.7 °C 32.7 °F /  0.4 °C 30.27in /  1024.9hPa Calm     91% 0.00in /  0mm 0 W/m2
23:14 34.9 °F /  1.6 °C 32.5 °F /  0.3 °C 30.26in /  1024.6hPa Calm     91% 0.00in /  0mm 0 W/m2
23:19 34.8 °F /  1.6 °C 32.4 °F /  0.2 °C 30.26in /  1024.6hPa Calm     91% 0.00in /  0mm 0 W/m2
23:24 34.7 °F /  1.5 °C 32.4 °F /  0.2 °C 30.26in /  1024.6hPa Calm     91% 0.00in /  0mm 0 W/m2
23:29 34.6 °F /  1.4 °C 32.3 °F /  0.2 °C 30.26in /  1024.6hPa Calm     91% 0.00in /  0mm 0 W/m2
23:34 34.7 °F /  1.5 °C 32.4 °F /  0.2 °C 30.27in /  1024.9hPa Calm     91% 0.00in /  0mm 0 W/m2
23:39 34.6 °F /  1.4 °C 32.3 °F /  0.2 °C 30.26in /  1024.6hPa Calm     91% 0.00in /  0mm 0 W/m2
23:44 34.7 °F /  1.5 °C 32.4 °F /  0.2 °C 30.26in /  1024.6hPa Calm     91% 0.00in /  0mm 0 W/m2
23:49 34.7 °F /  1.5 °C 32.4 °F /  0.2 °C 30.26in /  1024.6hPa Calm   1mph /  1.6km/h 91% 0.00in /  0mm 0 W/m2
23:54 34.5 °F /  1.4 °C 32.4 °F /  0.2 °C 30.26in /  1024.6hPa WNW 0.2mph /  0.3km/h 1mph /  1.6km/h 91.8% 0.00in /  0mm 0 W/m2
23:59 34.5 °F /  1.4 °C 32.4 °F /  0.2 °C 30.26in /  1024.6hPa Calm   2mph /  3.2km/h 91.8% 0.00in /  0mm 0 W/m2
Bath Spa Weather
Compliments of Weather Underground - 2 mb